createdAt,value
2023-06-15T00:05:27.511Z,17.50
2023-06-15T00:12:10.313Z,17.50
2023-06-15T00:18:56.167Z,17.50
2023-06-15T00:25:38.716Z,17.40
2023-06-15T00:32:21.084Z,17.30
2023-06-15T00:39:03.624Z,17.40
2023-06-15T00:45:46.217Z,17.30
2023-06-15T00:52:30.590Z,17.10
2023-06-15T00:59:12.926Z,16.90
2023-06-15T01:05:58.548Z,16.60
2023-06-15T01:12:45.617Z,16.60
2023-06-15T01:19:55.585Z,16.80
2023-06-15T01:26:40.100Z,16.70
2023-06-15T01:33:24.127Z,16.60
2023-06-15T01:40:07.265Z,16.40
2023-06-15T01:53:33.322Z,16.00
2023-06-15T02:00:16.127Z,15.90
2023-06-15T02:06:58.464Z,15.80
2023-06-15T02:13:41.065Z,15.50
2023-06-15T02:20:23.720Z,15.60
2023-06-15T02:27:07.059Z,15.50
2023-06-15T02:33:49.999Z,15.40
2023-06-15T02:40:32.774Z,15.40
2023-06-15T02:47:15.362Z,15.50
2023-06-15T02:53:58.024Z,15.20
2023-06-15T03:00:42.188Z,15.10
2023-06-15T03:07:36.800Z,15.10
2023-06-15T03:14:37.897Z,15.10
2023-06-15T03:21:24.125Z,15.10
2023-06-15T03:28:08.116Z,15.10
2023-06-15T03:34:53.469Z,15.30
2023-06-15T03:41:38.237Z,15.50
2023-06-15T03:48:20.855Z,15.40
2023-06-15T03:55:03.818Z,15.50
2023-06-15T04:01:46.344Z,15.70
2023-06-15T04:08:28.848Z,16.20
2023-06-15T04:15:12.217Z,16.80
2023-06-15T04:21:57.668Z,17.00
2023-06-15T04:28:40.680Z,17.40
2023-06-15T04:35:23.408Z,17.70
2023-06-15T04:42:06.486Z,17.60
2023-06-15T04:48:50.482Z,17.60
2023-06-15T04:55:32.900Z,17.50
2023-06-15T05:02:15.486Z,19.20
2023-06-15T05:08:57.906Z,22.40
2023-06-15T05:15:40.526Z,23.90
2023-06-15T05:22:23.070Z,25.20
2023-06-15T05:29:07.831Z,27.00
2023-06-15T05:35:51.112Z,27.90
2023-06-15T05:42:33.646Z,29.10
2023-06-15T05:49:16.347Z,29.50
2023-06-15T05:55:58.941Z,29.40
2023-06-15T06:02:42.443Z,30.50
2023-06-15T06:09:29.836Z,29.80
2023-06-15T06:16:12.893Z,29.40
2023-06-15T06:22:55.723Z,30.10
2023-06-15T06:29:38.146Z,31.30
2023-06-15T06:36:20.596Z,31.40
2023-06-15T06:43:03.005Z,32.10
2023-06-15T06:49:46.708Z,31.10
2023-06-15T06:56:29.048Z,32.30
2023-06-15T07:03:11.446Z,33.10
2023-06-15T07:09:53.941Z,34.00
2023-06-15T07:16:36.283Z,33.20
2023-06-15T07:23:18.601Z,32.30
2023-06-15T07:30:01.288Z,33.70
2023-06-15T07:36:43.697Z,34.00
2023-06-15T07:43:26.085Z,35.10
2023-06-15T07:50:09.211Z,35.80
2023-06-15T07:56:51.599Z,35.70
2023-06-15T08:03:34.072Z,35.80
2023-06-15T08:10:17.007Z,37.40
2023-06-15T08:16:59.627Z,36.80
2023-06-15T08:23:41.994Z,36.80
2023-06-15T08:30:24.366Z,36.00
2023-06-15T08:37:06.752Z,33.70
2023-06-15T08:43:53.745Z,35.10
2023-06-15T08:50:38.615Z,34.70
2023-06-15T08:57:21.515Z,33.80
2023-06-15T09:04:04.096Z,32.40
2023-06-15T09:10:46.737Z,34.10
2023-06-15T09:17:29.500Z,34.80
2023-06-15T09:24:13.510Z,34.50
2023-06-15T09:31:00.581Z,35.90
2023-06-15T09:37:43.221Z,34.60
2023-06-15T09:44:27.312Z,34.10
2023-06-15T09:51:10.512Z,34.00
2023-06-15T09:57:54.109Z,34.00
2023-06-15T10:04:41.436Z,35.60
2023-06-15T10:11:24.565Z,36.10
2023-06-15T10:18:08.687Z,36.00
2023-06-15T10:24:52.235Z,33.80
2023-06-15T10:31:56.696Z,36.70
2023-06-15T10:39:02.344Z,35.10
2023-06-15T10:45:44.800Z,33.60
2023-06-15T10:52:35.667Z,30.50
2023-06-15T10:59:38.778Z,28.50
2023-06-15T11:06:42.452Z,28.50
2023-06-15T11:13:26.734Z,28.70
2023-06-15T11:20:48.331Z,29.80
2023-06-15T11:27:32.673Z,29.10
2023-06-15T11:34:15.145Z,29.50
2023-06-15T11:41:05.204Z,29.40
2023-06-15T11:47:47.800Z,30.30
2023-06-15T11:54:49.448Z,29.30
2023-06-15T12:01:36.667Z,29.10
2023-06-15T12:08:19.071Z,27.80
2023-06-15T12:15:02.844Z,27.10
2023-06-15T12:21:47.403Z,27.50
2023-06-15T12:28:33.186Z,28.00
2023-06-15T12:35:33.074Z,27.90
2023-06-15T12:42:21.578Z,28.90
2023-06-15T12:49:05.201Z,27.80
2023-06-15T12:55:47.888Z,28.00
2023-06-15T13:02:30.375Z,27.40
2023-06-15T13:09:12.949Z,27.70
2023-06-15T13:15:55.885Z,28.50
2023-06-15T13:22:38.212Z,29.50
2023-06-15T13:29:20.706Z,28.20
2023-06-15T13:36:03.047Z,27.80
2023-06-15T13:42:45.429Z,27.00
2023-06-15T13:49:28.136Z,27.60
2023-06-15T13:56:10.477Z,27.50
2023-06-15T14:02:52.998Z,27.60
2023-06-15T14:09:35.415Z,27.80
2023-06-15T14:16:21.054Z,27.50
2023-06-15T14:23:03.721Z,27.70
2023-06-15T14:29:47.309Z,27.40
2023-06-15T14:36:29.692Z,27.10
2023-06-15T14:43:12.146Z,27.00
2023-06-15T14:49:54.732Z,26.80
2023-06-15T14:56:39.637Z,26.90
2023-06-15T15:03:22.365Z,27.30
2023-06-15T15:10:05.318Z,27.00
2023-06-15T15:16:47.675Z,26.80
2023-06-15T15:23:34.032Z,27.30
2023-06-15T15:30:16.972Z,27.00
2023-06-15T15:36:59.719Z,27.20
2023-06-15T15:43:42.704Z,26.90
2023-06-15T15:50:25.116Z,26.90
2023-06-15T15:57:08.395Z,27.10
2023-06-15T16:03:50.822Z,27.10
2023-06-15T16:10:33.283Z,27.00
2023-06-15T16:17:15.737Z,26.70
2023-06-15T16:23:58.065Z,27.00
2023-06-15T16:30:40.749Z,27.00
2023-06-15T16:37:23.477Z,26.60
2023-06-15T16:44:05.987Z,26.90
2023-06-15T16:50:48.535Z,26.60
2023-06-15T17:06:17.572Z,27.00
2023-06-15T17:13:00.712Z,26.70
2023-06-15T17:19:44.365Z,26.50
2023-06-15T17:26:26.785Z,26.30
2023-06-15T17:33:09.334Z,26.30
2023-06-15T17:39:51.695Z,26.20
2023-06-15T17:46:34.109Z,26.30
2023-06-15T17:53:16.698Z,26.20
2023-06-15T18:00:00.366Z,26.10
2023-06-15T18:06:42.741Z,26.00
2023-06-15T18:13:25.211Z,26.10
2023-06-15T18:20:08.033Z,25.70
2023-06-15T18:26:50.585Z,25.60
2023-06-15T18:33:33.017Z,25.50
2023-06-15T18:40:15.688Z,25.40
2023-06-15T18:46:57.987Z,25.20
2023-06-15T18:53:40.585Z,24.90
2023-06-15T19:00:22.960Z,24.70
2023-06-15T19:07:06.173Z,24.40
2023-06-15T19:13:49.469Z,23.90
2023-06-15T19:20:31.840Z,23.50
2023-06-15T19:27:14.268Z,23.50
2023-06-15T19:33:57.531Z,23.30
2023-06-15T19:40:40.680Z,23.10
2023-06-15T19:47:23.311Z,22.70
2023-06-15T19:54:05.967Z,22.40
2023-06-15T20:00:48.372Z,22.10
2023-06-15T20:07:31.203Z,21.70
2023-06-15T20:14:14.296Z,21.60
2023-06-15T20:20:56.649Z,21.50
2023-06-15T20:27:40.029Z,21.40
2023-06-15T20:34:22.426Z,21.10
2023-06-15T20:41:05.987Z,21.00
2023-06-15T20:47:48.419Z,20.90
2023-06-15T20:54:31.039Z,20.70
2023-06-15T21:01:13.506Z,20.30
2023-06-15T21:07:58.684Z,20.30
2023-06-15T21:14:41.325Z,20.10
2023-06-15T21:21:23.900Z,19.70
2023-06-15T21:28:10.528Z,19.60
2023-06-15T21:34:54.917Z,19.60
2023-06-15T21:41:39.148Z,19.60
2023-06-15T21:48:21.814Z,19.30
2023-06-15T21:55:05.730Z,19.00
2023-06-15T22:01:48.178Z,18.90
2023-06-15T22:08:30.504Z,19.10
2023-06-15T22:15:13.035Z,18.90
2023-06-15T22:21:55.464Z,18.90
2023-06-15T22:28:37.749Z,18.70
2023-06-15T22:35:21.504Z,18.50
2023-06-15T22:42:04.258Z,18.20
2023-06-15T22:48:47.994Z,18.10
2023-06-15T22:55:33.349Z,18.20
2023-06-15T23:02:17.432Z,18.00
2023-06-15T23:09:01.010Z,17.90
2023-06-15T23:15:43.331Z,17.90
2023-06-15T23:22:25.669Z,17.50
2023-06-15T23:29:08.106Z,17.60
2023-06-15T23:35:50.609Z,17.50
2023-06-15T23:42:32.974Z,17.50
2023-06-15T23:49:15.711Z,17.00
2023-06-15T23:56:00.844Z,16.90
